Time;durP1;ratioP1;P1;durP2;ratioP2;P2;SDS_P1;SDS_P2;PMS_P1;PMS_P2;Temp;Humidity;BMP_temperature;BMP_pressure;BME280_temperature;BME280_humidity;BME280_pressure;Samples;Min_cycle;Max_cycle;Signal;HPM_P1;HPM_P2
2023/05/16 00:01:15;;;;;;;7.75;0.68;;;;;;;13.30;66.85;101935.88;7357820;19;20030;-59
2023/05/16 00:03:42;;;;;;;4.40;0.60;;;;;;;13.26;67.05;101937.97;7362165;19;20514;-62
2023/05/16 00:06:10;;;;;;;4.90;0.68;;;;;;;13.23;66.83;101927.69;7360975;19;20018;-61
2023/05/16 00:08:38;;;;;;;3.97;0.70;;;;;;;13.20;66.94;101933.28;7361420;19;20018;-61
2023/05/16 00:11:05;;;;;;;5.47;0.70;;;;;;;13.18;67.37;101931.72;7362101;19;20085;-60
2023/05/16 00:13:33;;;;;;;5.47;0.70;;;;;;;13.17;67.59;101924.78;7362631;19;20408;-60
2023/05/16 00:16:01;;;;;;;5.43;0.60;;;;;;;13.15;67.83;101922.28;7358287;19;20014;-60
2023/05/16 00:18:29;;;;;;;5.55;1.15;;;;;;;13.15;67.75;101938.16;7359797;19;20044;-62
2023/05/16 00:20:56;;;;;;;3.35;0.60;;;;;;;13.13;67.88;101926.88;7361019;19;20370;-60
2023/05/16 00:23:24;;;;;;;3.53;0.85;;;;;;;13.13;68.22;101926.03;7361914;19;20018;-62
2023/05/16 00:25:51;;;;;;;9.18;1.70;;;;;;;13.11;68.23;101914.72;7357645;19;20085;-61
2023/05/16 00:28:18;;;;;;;4.00;0.60;;;;;;;13.12;68.14;101922.56;7359704;19;20042;-60
2023/05/16 00:30:46;;;;;;;4.50;0.70;;;;;;;13.13;68.12;101924.22;7357846;19;20074;-61
2023/05/16 00:33:14;;;;;;;6.25;0.75;;;;;;;13.14;68.34;101915.34;7360378;19;20637;-61
2023/05/16 00:35:42;;;;;;;5.80;0.60;;;;;;;13.13;68.23;101932.16;7356907;19;20022;-60
2023/05/16 00:38:09;;;;;;;4.07;0.75;;;;;;;13.13;68.55;101923.41;7360314;19;20029;-61
2023/05/16 00:40:37;;;;;;;3.58;0.82;;;;;;;13.12;68.23;101933.13;7360872;19;20023;-62
2023/05/16 00:43:05;;;;;;;4.18;0.60;;;;;;;13.10;66.97;101937.72;7360993;19;20022;-62
2023/05/16 00:45:32;;;;;;;2.63;0.40;;;;;;;13.09;67.01;101940.47;7356715;19;20516;-61
2023/05/16 00:48:00;;;;;;;4.15;0.50;;;;;;;13.08;67.68;101944.94;7358019;19;20379;-60
2023/05/16 00:50:27;;;;;;;4.65;0.55;;;;;;;13.09;67.81;101940.47;7357596;19;20879;-62
2023/05/16 00:52:55;;;;;;;5.13;0.60;;;;;;;13.07;67.82;101937.13;7363663;19;21034;-59
2023/05/16 00:55:23;;;;;;;3.65;0.60;;;;;;;13.05;68.33;101939.94;7360367;19;20035;-63
2023/05/16 00:57:51;;;;;;;2.83;0.60;;;;;;;13.04;68.09;101935.63;7360891;19;20024;-61
2023/05/16 01:00:19;;;;;;;4.93;0.60;;;;;;;13.02;68.56;101931.44;7350754;19;20106;-58
2023/05/16 01:02:47;;;;;;;3.85;0.47;;;;;;;13.01;68.34;101935.06;7360675;19;20020;-60
2023/05/16 01:05:14;;;;;;;6.03;0.63;;;;;;;13.01;67.95;101930.59;7359983;19;20010;-61
2023/05/16 01:07:42;;;;;;;8.15;0.93;;;;;;;13.00;68.28;101936.06;7361588;19;20091;-62
2023/05/16 01:10:10;;;;;;;4.50;0.50;;;;;;;12.98;67.82;101930.91;7358027;19;20006;-59
2023/05/16 01:12:45;;;;;;;6.30;0.70;;;;;;;12.98;68.76;101935.34;7359607;19;20022;-65
2023/05/16 01:15:20;;;;;;;3.70;0.40;;;;;;;12.95;68.17;101936.47;7358550;19;20032;-61
2023/05/16 01:17:56;;;;;;;4.22;0.65;;;;;;;12.98;68.55;101933.53;7356401;19;20018;-61
2023/05/16 01:20:27;;;;;;;5.82;0.50;;;;;;;12.99;67.92;101929.94;7354723;19;20014;-62
2023/05/16 01:22:59;;;;;;;7.22;1.90;;;;;;;12.98;67.72;101936.19;7356293;19;20047;-62
2023/05/16 01:25:34;;;;;;;2.85;0.50;;;;;;;12.98;68.23;101933.53;7357885;19;20128;-58
2023/05/16 01:28:03;;;;;;;4.05;0.75;;;;;;;13.00;68.20;101933.41;7356931;19;20010;-63
2023/05/16 01:30:36;;;;;;;4.65;0.40;;;;;;;13.00;67.92;101944.81;7356277;19;20026;-60
2023/05/16 01:33:03;;;;;;;4.15;0.60;;;;;;;12.99;67.86;101931.75;7356871;19;20031;-59
2023/05/16 01:35:31;;;;;;;4.13;1.08;;;;;;;13.00;68.06;101934.25;7357641;19;20034;-58
2023/05/16 01:38:08;;;;;;;3.58;0.50;;;;;;;12.99;68.61;101929.94;7361185;19;20027;-59
2023/05/16 01:40:47;;;;;;;8.23;0.75;;;;;;;13.02;69.29;101926.16;7356600;19;20217;-61
2023/05/16 01:43:19;;;;;;;4.32;0.65;;;;;;;13.05;69.13;101937.31;7360458;19;20094;-61
2023/05/16 01:45:54;;;;;;;4.82;0.80;;;;;;;13.05;69.07;101936.47;7355213;19;20740;-62
2023/05/16 01:48:26;;;;;;;4.05;0.70;;;;;;;13.06;69.26;101930.19;7360859;19;20039;-61
2023/05/16 01:50:56;;;;;;;5.47;1.67;;;;;;;13.06;69.09;101927.53;7353439;19;21778;-61
2023/05/16 01:53:28;;;;;;;6.13;0.70;;;;;;;13.05;69.87;101926.72;7356546;19;21054;-60
2023/05/16 01:55:57;;;;;;;7.43;0.73;;;;;;;13.02;69.51;101919.06;7355069;19;20022;-61
2023/05/16 01:58:29;;;;;;;6.97;0.65;;;;;;;12.99;69.76;101927.28;7354783;19;20018;-61
2023/05/16 02:01:02;;;;;;;4.80;0.70;;;;;;;12.97;69.90;101920.47;7361846;19;20022;-62
2023/05/16 02:03:30;;;;;;;6.75;0.60;;;;;;;12.96;70.30;101916.16;7366366;19;20089;-61
2023/05/16 02:05:58;;;;;;;4.88;0.85;;;;;;;12.96;70.46;101924.06;7360221;19;20051;-60
2023/05/16 02:08:28;;;;;;;6.93;0.73;;;;;;;12.95;70.31;101920.63;7363186;19;20512;-61
2023/05/16 02:10:55;;;;;;;6.05;0.68;;;;;;;12.94;70.51;101931.31;7364753;19;20643;-61
2023/05/16 02:13:23;;;;;;;3.10;0.52;;;;;;;12.90;70.51;101922.03;7361506;19;20014;-61
2023/05/16 02:15:51;;;;;;;3.65;0.73;;;;;;;12.86;70.42;101929.38;7361948;19;20766;-60
2023/05/16 02:18:19;;;;;;;4.68;0.60;;;;;;;12.84;70.54;101928.69;7366700;19;20093;-62
2023/05/16 02:20:46;;;;;;;4.25;0.70;;;;;;;12.83;71.47;101922.56;7359579;19;20039;-60
2023/05/16 02:23:14;;;;;;;5.28;0.60;;;;;;;12.81;70.50;101931.59;7364660;19;20015;-60
2023/05/16 02:25:41;;;;;;;6.18;0.82;;;;;;;12.76;70.85;101929.38;7361273;19;20111;-62
2023/05/16 02:28:09;;;;;;;5.18;0.57;;;;;;;12.72;70.95;101920.06;7364812;19;20748;-60
2023/05/16 02:30:36;;;;;;;7.93;1.52;;;;;;;12.70;71.37;101921.16;7361019;19;20024;-59
2023/05/16 02:33:03;;;;;;;6.75;0.90;;;;;;;12.69;71.51;101917.72;7363886;19;20974;-60
2023/05/16 02:35:31;;;;;;;4.05;0.55;;;;;;;12.69;71.82;101920.38;7363520;19;20057;-61
2023/05/16 02:37:58;;;;;;;2.05;0.68;;;;;;;12.69;71.62;101917.72;7368138;19;20014;-61
2023/05/16 02:40:25;;;;;;;6.90;1.08;;;;;;;12.70;71.69;101924.66;7361135;19;20985;-60
2023/05/16 02:42:53;;;;;;;2.63;0.50;;;;;;;12.69;71.68;101925.66;7363509;19;20452;-62
2023/05/16 02:45:20;;;;;;;6.93;0.77;;;;;;;12.66;72.15;101919.78;7363474;19;20771;-60
2023/05/16 02:47:48;;;;;;;5.78;0.90;;;;;;;12.62;72.45;101919.25;7362824;19;20105;-61
2023/05/16 02:50:15;;;;;;;5.78;0.80;;;;;;;12.60;72.76;101921.19;7362440;19;20018;-58
2023/05/16 02:52:43;;;;;;;11.00;1.40;;;;;;;12.58;72.84;101925.78;7363318;19;20077;-61
2023/05/16 02:55:11;;;;;;;6.03;2.00;;;;;;;12.54;73.14;101927.03;7363305;19;20011;-60
2023/05/16 02:57:41;;;;;;;10.77;3.85;;;;;;;12.51;73.41;101915.91;7363481;19;20031;-60
2023/05/16 03:00:10;;;;;;;9.35;4.20;;;;;;;12.48;73.70;101917.03;7360735;19;20221;-60
2023/05/16 03:02:38;;;;;;;13.63;4.70;;;;;;;12.46;74.52;101926.88;7363828;19;20019;-60
2023/05/16 03:05:06;;;;;;;14.27;5.57;;;;;;;12.45;74.64;101917.28;7364301;19;20010;-60
2023/05/16 03:07:33;;;;;;;12.82;6.38;;;;;;;12.40;74.70;101919.50;7362195;19;20576;-61
2023/05/16 03:10:00;;;;;;;11.95;6.75;;;;;;;12.38;75.54;101922.28;7362860;19;20017;-61
2023/05/16 03:12:28;;;;;;;12.15;5.93;;;;;;;12.34;75.43;101917.44;7365694;19;20090;-60
2023/05/16 03:14:55;;;;;;;11.27;6.13;;;;;;;12.29;75.90;101927.56;7362179;19;20037;-59
2023/05/16 03:17:23;;;;;;;14.95;5.72;;;;;;;12.26;76.56;101922.53;7357718;19;20338;-62
2023/05/16 03:19:51;;;;;;;10.90;5.63;;;;;;;12.21;76.85;101917.69;7362097;19;20680;-60
2023/05/16 03:22:18;;;;;;;13.40;5.40;;;;;;;12.18;76.95;101917.97;7361505;19;20026;-58
2023/05/16 03:24:45;;;;;;;11.70;4.53;;;;;;;12.14;77.26;101921.81;7364779;19;20354;-60
2023/05/16 03:27:13;;;;;;;8.75;4.43;;;;;;;12.10;77.58;101920.44;7359266;19;20022;-60
2023/05/16 03:29:41;;;;;;;13.73;4.30;;;;;;;12.07;77.66;101920.72;7362193;19;20014;-61
2023/05/16 03:32:10;;;;;;;10.90;3.72;;;;;;;12.05;77.16;101914.72;7360326;19;21140;-61
2023/05/16 03:34:38;;;;;;;7.32;3.58;;;;;;;12.03;77.16;101905.28;7362299;19;20014;-60
2023/05/16 03:37:05;;;;;;;7.20;2.70;;;;;;;11.99;76.68;101905.53;7360198;19;20035;-61
2023/05/16 03:39:33;;;;;;;7.03;2.13;;;;;;;11.94;77.12;101912.19;7359453;19;20056;-61
2023/05/16 03:42:00;;;;;;;6.95;1.98;;;;;;;11.88;77.13;101908.31;7361810;19;20022;-61
2023/05/16 03:44:27;;;;;;;8.27;2.38;;;;;;;11.86;77.50;101906.75;7359294;19;20011;-58
2023/05/16 03:46:55;;;;;;;8.52;2.05;;;;;;;11.84;76.98;101906.06;7356195;19;20117;-62
2023/05/16 03:49:27;;;;;;;6.32;2.08;;;;;;;11.81;77.57;101916.88;7361433;19;20015;-62
2023/05/16 03:51:54;;;;;;;7.78;1.45;;;;;;;11.80;78.40;101913.41;7361094;19;20106;-62
2023/05/16 03:54:22;;;;;;;6.65;1.35;;;;;;;11.81;77.27;101915.09;7359082;19;20029;-62
2023/05/16 03:56:49;;;;;;;9.40;1.35;;;;;;;11.78;76.81;101922.44;7363941;19;20022;-59
2023/05/16 03:59:17;;;;;;;5.88;1.08;;;;;;;11.74;76.93;101918.38;7360306;19;20037;-58
2023/05/16 04:01:44;;;;;;;6.60;1.13;;;;;;;11.74;76.91;101911.31;7357457;19;21513;-61
2023/05/16 04:04:11;;;;;;;5.15;0.95;;;;;;;11.72;76.80;101918.50;7360129;19;20126;-61
2023/05/16 04:06:39;;;;;;;5.40;0.80;;;;;;;11.70;77.15;101922.22;7359421;19;20010;-60
2023/05/16 04:09:06;;;;;;;5.15;0.73;;;;;;;11.67;76.97;101917.22;7365041;19;20074;-59
2023/05/16 04:11:34;;;;;;;3.58;0.77;;;;;;;11.65;76.64;101927.88;7357885;19;20018;-61
2023/05/16 04:14:01;;;;;;;5.60;0.75;;;;;;;11.63;76.78;101926.38;7363996;19;20047;-59
2023/05/16 04:16:29;;;;;;;4.78;0.60;;;;;;;11.61;76.83;101930.94;7361057;19;20067;-62
2023/05/16 04:18:58;;;;;;;3.13;0.50;;;;;;;11.57;76.55;101935.63;7363310;19;21751;-60
2023/05/16 04:21:25;;;;;;;6.50;0.70;;;;;;;11.57;76.67;101933.84;7354576;19;20029;-60
2023/05/16 04:23:53;;;;;;;7.65;0.80;;;;;;;11.56;76.79;101932.16;7359859;19;20032;-61
2023/05/16 04:26:21;;;;;;;6.90;0.60;;;;;;;11.55;76.58;101937.56;7361598;19;20015;-60
2023/05/16 04:28:49;;;;;;;3.20;0.50;;;;;;;11.54;77.69;101934.09;7362256;19;20015;-62
2023/05/16 04:31:16;;;;;;;3.65;0.60;;;;;;;11.56;76.88;101934.78;7360387;19;20027;-61
2023/05/16 04:33:44;;;;;;;7.40;0.60;;;;;;;11.54;76.64;101933.25;7363496;19;20423;-61
2023/05/16 04:36:12;;;;;;;8.25;0.47;;;;;;;11.53;76.58;101929.78;7357738;19;20090;-60
2023/05/16 04:38:40;;;;;;;4.78;0.52;;;;;;;11.54;76.64;101930.59;7363868;19;20082;-60
2023/05/16 04:41:08;;;;;;;6.10;0.63;;;;;;;11.56;76.71;101932.16;7357429;19;20014;-61
2023/05/16 04:43:35;;;;;;;3.20;0.40;;;;;;;11.54;76.17;101936.72;7360737;19;20010;-61
2023/05/16 04:46:02;;;;;;;2.80;0.60;;;;;;;11.54;76.50;101941.16;7357746;19;20804;-61
2023/05/16 04:48:31;;;;;;;4.60;0.55;;;;;;;11.54;76.52;101942.00;7359247;19;20026;-59
2023/05/16 04:50:58;;;;;;;8.55;0.65;;;;;;;11.56;76.36;101947.97;7357304;19;20026;-61
2023/05/16 04:53:26;;;;;;;7.65;0.50;;;;;;;11.57;76.38;101940.91;7362532;19;20110;-63
2023/05/16 04:55:53;;;;;;;4.43;0.52;;;;;;;11.58;76.71;101946.03;7359195;19;20029;-61
2023/05/16 04:58:23;;;;;;;5.15;1.02;;;;;;;11.58;76.47;101948.66;7363727;19;20038;-62
2023/05/16 05:00:51;;;;;;;6.82;0.50;;;;;;;11.62;75.95;101938.72;7354324;19;20047;-61
2023/05/16 05:03:18;;;;;;;6.32;0.50;;;;;;;11.57;76.09;101947.03;7360498;19;20038;-64
2023/05/16 05:05:46;;;;;;;4.47;0.60;;;;;;;11.57;76.07;101944.38;7358939;19;20007;-61
2023/05/16 05:08:14;;;;;;;5.88;0.57;;;;;;;11.58;76.38;101940.75;7357829;19;20073;-59
2023/05/16 05:10:41;;;;;;;6.15;0.60;;;;;;;11.59;76.17;101946.88;7360747;19;20011;-62
2023/05/16 05:13:10;;;;;;;5.90;1.38;;;;;;;11.63;76.38;101948.25;7359419;19;20026;-59
2023/05/16 05:15:37;;;;;;;5.13;0.60;;;;;;;11.66;76.84;101950.66;7354582;19;20093;-60
2023/05/16 05:18:05;;;;;;;5.45;0.60;;;;;;;11.72;76.63;101957.22;7359994;19;20463;-63
2023/05/16 05:20:32;;;;;;;5.50;0.35;;;;;;;11.79;76.20;101966.28;7357963;19;20053;-61
2023/05/16 05:23:00;;;;;;;7.20;0.60;;;;;;;11.82;76.15;101963.38;7361636;19;20013;-62
2023/05/16 05:25:27;;;;;;;5.78;0.40;;;;;;;11.83;76.01;101967.69;7358598;19;20018;-62
2023/05/16 05:27:55;;;;;;;8.88;0.57;;;;;;;11.85;75.68;101969.22;7360567;19;20024;-61
2023/05/16 05:30:22;;;;;;;6.95;0.43;;;;;;;11.90;75.49;101980.22;7357864;19;21034;-56
2023/05/16 05:32:50;;;;;;;9.23;0.55;;;;;;;11.94;75.43;101972.84;7357746;19;20010;-61
2023/05/16 05:35:17;;;;;;;10.88;1.08;;;;;;;12.00;75.16;101977.59;7361208;19;20037;-61
2023/05/16 05:37:45;;;;;;;4.72;0.50;;;;;;;12.03;75.21;101974.72;7359385;19;20014;-62
2023/05/16 05:40:12;;;;;;;5.10;1.10;;;;;;;12.06;74.71;101969.16;7360723;19;20125;-62
2023/05/16 05:42:40;;;;;;;7.75;0.60;;;;;;;12.09;76.10;101983.91;7357017;19;20015;-61
2023/05/16 05:45:10;;;;;;;7.40;0.55;;;;;;;12.11;75.77;101979.31;7359017;19;20003;-59
2023/05/16 05:47:38;;;;;;;5.10;0.40;;;;;;;12.14;75.78;101979.06;7358258;19;20017;-63
2023/05/16 05:50:07;;;;;;;5.05;0.60;;;;;;;12.19;75.53;101982.13;7358685;19;20857;-61
2023/05/16 05:52:34;;;;;;;6.30;0.52;;;;;;;12.23;75.13;101984.34;7359218;19;20047;-61
2023/05/16 05:55:02;;;;;;;7.55;0.50;;;;;;;12.28;74.46;101991.88;7361173;19;20278;-59
2023/05/16 05:57:29;;;;;;;9.77;0.60;;;;;;;12.29;74.00;101989.06;7356113;19;20023;-61
2023/05/16 05:59:56;;;;;;;10.20;1.10;;;;;;;12.33;74.37;101990.50;7356942;19;20056;-58
2023/05/16 06:02:24;;;;;;;11.77;0.57;;;;;;;12.37;74.63;101994.53;7355804;19;21080;-62
2023/05/16 06:04:52;;;;;;;5.93;0.73;;;;;;;12.41;73.52;101995.91;7358256;19;20018;-60
2023/05/16 06:07:19;;;;;;;9.65;0.40;;;;;;;12.66;73.67;101997.22;7356383;19;20011;-62
2023/05/16 06:09:47;;;;;;;6.57;0.60;;;;;;;12.86;72.72;102000.69;7359003;19;21559;-60
2023/05/16 06:12:14;;;;;;;6.20;0.70;;;;;;;12.97;72.07;101997.09;7359610;19;20679;-60
2023/05/16 06:14:42;;;;;;;4.60;0.60;;;;;;;13.08;71.90;102004.88;7359495;19;20579;-61
2023/05/16 06:17:09;;;;;;;7.35;0.60;;;;;;;13.27;70.77;102010.16;7359719;19;20510;-62
2023/05/16 06:19:36;;;;;;;4.85;0.47;;;;;;;13.42;68.90;102014.03;7355483;19;20467;-61
2023/05/16 06:22:04;;;;;;;8.18;0.60;;;;;;;13.51;69.20;102013.19;7355700;19;20081;-62
2023/05/16 06:24:32;;;;;;;7.53;0.60;;;;;;;13.60;70.07;102015.00;7356441;19;20626;-61
2023/05/16 06:26:59;;;;;;;4.70;0.40;;;;;;;13.77;69.56;102010.75;7358314;19;20013;-61
2023/05/16 06:29:27;;;;;;;12.15;0.57;;;;;;;13.97;67.71;102016.81;7359400;19;20022;-60
2023/05/16 06:31:54;;;;;;;6.35;1.10;;;;;;;14.28;68.79;102015.56;7355310;19;20019;-62
2023/05/16 06:34:26;;;;;;;14.05;1.05;;;;;;;14.56;70.76;102021.72;7359779;19;20018;-61
2023/05/16 06:36:54;;;;;;;6.05;0.50;;;;;;;14.94;67.99;102025.88;7358292;19;20024;-62
2023/05/16 06:39:21;;;;;;;7.90;0.57;;;;;;;15.18;66.29;102028.78;7355175;19;20018;-63
2023/05/16 06:41:49;;;;;;;5.00;0.43;;;;;;;15.31;64.10;102044.28;7357784;19;20685;-63
2023/05/16 06:44:17;;;;;;;8.30;0.50;;;;;;;15.37;61.67;102028.59;7356437;19;20390;-62
2023/05/16 06:46:44;;;;;;;4.32;0.40;;;;;;;15.38;62.13;102030.25;7361140;19;20828;-61
2023/05/16 06:49:12;;;;;;;5.70;0.60;;;;;;;15.15;61.18;102026.41;7363230;19;20919;-60
2023/05/16 06:51:40;;;;;;;6.85;0.50;;;;;;;14.89;62.47;102022.84;7360187;19;20661;-62
2023/05/16 06:54:07;;;;;;;9.63;0.68;;;;;;;14.65;63.28;102026.09;7364907;19;20022;-62
2023/05/16 06:56:35;;;;;;;3.05;0.50;;;;;;;14.51;64.02;102030.09;7360476;19;20126;-61
2023/05/16 06:59:03;;;;;;;6.45;0.85;;;;;;;14.41;64.67;102031.13;7362443;19;20007;-62
2023/05/16 07:01:30;;;;;;;4.60;0.40;;;;;;;14.29;64.69;102034.91;7362342;19;20037;-62
2023/05/16 07:03:58;;;;;;;5.07;0.50;;;;;;;14.20;65.21;102027.88;7361258;19;20114;-57
2023/05/16 07:06:26;;;;;;;2.20;0.38;;;;;;;14.14;65.49;102022.19;7361985;19;20015;-62
2023/05/16 07:08:53;;;;;;;2.92;0.40;;;;;;;14.09;66.03;102028.88;7363831;19;20007;-64
2023/05/16 07:11:21;;;;;;;10.27;0.45;;;;;;;14.10;66.80;102031.41;7365889;19;20041;-62
2023/05/16 07:13:49;;;;;;;6.80;0.52;;;;;;;14.16;65.55;102029.16;7361541;19;20099;-62
2023/05/16 07:16:17;;;;;;;6.22;0.50;;;;;;;14.18;65.71;102029.81;7359466;19;20028;-62
2023/05/16 07:18:45;;;;;;;8.20;0.60;;;;;;;14.27;64.48;102035.09;7359614;19;20054;-62
2023/05/16 07:21:20;;;;;;;6.55;0.40;;;;;;;14.30;64.48;102032.13;7362867;19;20383;-61
2023/05/16 07:23:49;;;;;;;2.70;0.43;;;;;;;14.34;65.24;102030.00;7365223;19;20013;-61
2023/05/16 07:26:17;;;;;;;6.00;0.45;;;;;;;14.41;65.47;102024.03;7361196;19;20018;-60
2023/05/16 07:28:45;;;;;;;10.48;0.43;;;;;;;14.54;63.75;102031.59;7364125;19;20030;-58
2023/05/16 07:31:17;;;;;;;4.13;0.35;;;;;;;14.70;63.13;102029.13;7360876;19;20671;-61
2023/05/16 07:33:47;;;;;;;5.73;0.50;;;;;;;14.93;63.39;102038.31;7362704;19;20031;-61
2023/05/16 07:36:53;;;;;;;9.00;0.40;;;;;;;15.60;61.58;102044.84;7359539;19;20130;-62
2023/05/16 07:40:24;;;;;;;8.00;0.30;;;;;;;16.81;60.07;102047.25;7364060;19;20047;-60
2023/05/16 07:43:35;;;;;;;8.63;0.50;;;;;;;17.34;56.09;102045.97;7360909;19;20439;-62
2023/05/16 07:46:47;;;;;;;8.30;0.60;;;;;;;17.70;55.93;102049.97;7352721;19;21002;-60
2023/05/16 07:49:59;;;;;;;8.18;0.55;;;;;;;18.71;51.81;102056.28;7358226;19;20467;-61
2023/05/16 07:52:43;;;;;;;6.13;0.85;;;;;;;18.84;49.23;102055.72;7360212;19;20036;-62
2023/05/16 07:55:18;;;;;;;4.75;0.50;;;;;;;18.39;49.21;102062.56;7359616;19;20014;-62
2023/05/16 07:57:47;;;;;;;4.10;0.28;;;;;;;17.86;50.69;102054.44;7361803;19;20057;-61
2023/05/16 08:00:15;;;;;;;5.95;0.40;;;;;;;17.66;50.70;102051.31;7358020;19;20018;-61
2023/05/16 08:02:43;;;;;;;7.35;0.40;;;;;;;17.39;52.59;102049.78;7360155;19;20011;-62
2023/05/16 08:05:11;;;;;;;6.43;0.38;;;;;;;17.18;52.42;102052.13;7361062;19;20025;-61
2023/05/16 08:07:39;;;;;;;6.45;0.43;;;;;;;17.03;52.82;102057.25;7361782;19;22060;-63
2023/05/16 08:10:08;;;;;;;5.40;0.40;;;;;;;17.29;52.03;102057.13;7359807;19;20589;-61
2023/05/16 08:12:39;;;;;;;6.28;0.40;;;;;;;17.39;49.86;102063.09;7360157;19;20033;-61
2023/05/16 08:15:08;;;;;;;7.13;0.90;;;;;;;16.96;50.80;102056.28;7359295;19;20018;-62
2023/05/16 08:17:37;;;;;;;3.90;0.65;;;;;;;16.65;52.75;102045.41;7361227;19;20485;-61
2023/05/16 08:20:06;;;;;;;7.25;2.17;;;;;;;16.53;52.90;102051.97;7360883;19;20672;-61
2023/05/16 08:22:33;;;;;;;9.43;0.80;;;;;;;16.53;52.71;102054.63;7358587;19;20018;-62
2023/05/16 08:25:01;;;;;;;4.25;0.43;;;;;;;16.46;53.54;102052.75;7363302;19;20010;-60
2023/05/16 08:27:29;;;;;;;5.15;0.38;;;;;;;16.36;53.37;102058.22;7362610;19;20175;-59
2023/05/16 08:29:57;;;;;;;3.70;0.45;;;;;;;16.30;53.15;102058.88;7360581;19;20810;-62
2023/05/16 08:32:25;;;;;;;3.95;0.75;;;;;;;16.25;53.04;102043.38;7356995;19;20026;-60
2023/05/16 08:34:53;;;;;;;4.93;0.30;;;;;;;16.20;52.47;102047.53;7360937;19;20014;-62
2023/05/16 08:37:21;;;;;;;3.58;0.30;;;;;;;16.18;52.91;102046.84;7359121;19;20025;-60
2023/05/16 08:39:48;;;;;;;4.65;0.40;;;;;;;16.12;53.53;102035.03;7363787;19;20037;-62
2023/05/16 08:42:16;;;;;;;2.58;0.30;;;;;;;16.13;53.90;102047.34;7358054;19;20028;-62
2023/05/16 08:44:44;;;;;;;4.97;0.30;;;;;;;16.01;53.22;102037.13;7358983;19;20017;-60
2023/05/16 08:47:20;;;;;;;2.55;0.30;;;;;;;15.89;53.98;102038.41;7355732;19;20324;-61
2023/05/16 08:49:50;;;;;;;5.20;0.35;;;;;;;15.97;53.53;102047.25;7360902;19;20024;-60
2023/05/16 08:52:20;;;;;;;6.88;0.68;;;;;;;16.01;54.18;102045.09;7358643;19;20014;-61
2023/05/16 08:54:50;;;;;;;6.65;0.57;;;;;;;16.07;54.93;102047.13;7361041;19;20565;-61
2023/05/16 08:57:37;;;;;;;3.85;0.30;;;;;;;16.34;54.23;102054.91;7361569;19;20006;-62
2023/05/16 09:02:41;;;;;;;7.50;0.38;;;;;;;16.91;52.86;102039.97;7359690;19;20025;-62
2023/05/16 09:05:11;;;;;;;3.80;0.30;;;;;;;17.61;52.25;102050.97;7356603;19;20482;-61
2023/05/16 09:07:40;;;;;;;6.40;0.45;;;;;;;18.05;50.15;102038.06;7357530;19;20010;-61
2023/05/16 09:10:10;;;;;;;5.72;0.20;;;;;;;17.84;50.74;102051.91;7357339;19;21294;-62
2023/05/16 09:12:38;;;;;;;4.57;0.35;;;;;;;17.53;51.14;102048.28;7360873;19;20014;-61
2023/05/16 09:15:09;;;;;;;7.53;0.43;;;;;;;17.37;52.53;102049.13;7356291;19;20021;-62
2023/05/16 09:17:41;;;;;;;4.70;0.30;;;;;;;17.37;51.89;102050.97;7360377;19;20497;-58
2023/05/16 09:20:11;;;;;;;5.75;0.30;;;;;;;17.41;51.15;102046.97;7355175;19;20018;-65
2023/05/16 09:22:48;;;;;;;7.80;0.50;;;;;;;17.45;50.86;102050.97;7359326;19;20039;-62
2023/05/16 09:25:16;;;;;;;6.72;1.13;;;;;;;17.42;50.62;102052.09;7357390;19;20478;-62
2023/05/16 09:27:57;;;;;;;5.45;0.38;;;;;;;17.41;50.44;102054.97;7359131;19;20127;-61
2023/05/16 09:30:29;;;;;;;6.80;0.60;;;;;;;17.29;50.10;102058.94;7358034;19;20018;-61
2023/05/16 09:33:03;;;;;;;3.97;0.30;;;;;;;17.13;51.51;102061.59;7360606;19;20019;-62
2023/05/16 09:35:35;;;;;;;3.00;0.30;;;;;;;16.97;51.84;102057.06;7355528;19;20025;-62
2023/05/16 09:38:17;;;;;;;7.38;0.30;;;;;;;16.90;51.58;102050.78;7355586;19;20360;-60
2023/05/16 09:40:45;;;;;;;5.70;0.30;;;;;;;16.88;52.04;102048.25;7355408;19;20003;-62
2023/05/16 09:43:15;;;;;;;3.47;0.68;;;;;;;16.86;52.74;102050.28;7359313;19;20125;-60
2023/05/16 09:45:48;;;;;;;8.15;0.90;;;;;;;16.85;52.64;102051.25;7352048;19;20467;-60
2023/05/16 09:48:16;;;;;;;6.57;0.30;;;;;;;16.86;52.14;102062.72;7358135;19;21628;-62
2023/05/16 09:53:26;;;;;;;4.35;0.35;;;;;;;16.83;51.80;102050.59;7359528;19;20030;-62
2023/05/16 09:56:01;;;;;;;6.13;0.30;;;;;;;16.79;50.80;102053.75;7356835;19;20044;-61
2023/05/16 09:58:31;;;;;;;2.95;0.30;;;;;;;16.81;51.69;102049.09;7357388;19;20037;-61
2023/05/16 10:00:59;;;;;;;5.60;0.40;;;;;;;16.86;51.58;102055.59;7356971;19;20637;-60
2023/05/16 10:03:28;;;;;;;2.20;0.30;;;;;;;16.82;51.16;102051.56;7357049;19;20987;-61
2023/05/16 10:05:58;;;;;;;5.07;0.60;;;;;;;16.81;51.74;102047.25;7353694;19;20014;-61
2023/05/16 10:08:31;;;;;;;5.65;0.50;;;;;;;16.79;52.22;102056.41;7356559;19;20022;-61
2023/05/16 10:10:59;;;;;;;2.42;0.30;;;;;;;16.79;51.37;102053.75;7357455;19;20691;-61
2023/05/16 10:13:30;;;;;;;4.82;0.25;;;;;;;16.87;49.98;102046.59;7357400;19;20044;-62
2023/05/16 10:16:10;;;;;;;2.35;0.20;;;;;;;17.05;49.12;102049.97;7355148;19;21044;-59
2023/05/16 10:18:40;;;;;;;3.33;0.30;;;;;;;17.14;49.06;102047.28;7355205;19;20466;-62
2023/05/16 10:21:13;;;;;;;5.03;0.20;;;;;;;17.12;50.43;102042.13;7361767;19;20011;-61
2023/05/16 10:23:42;;;;;;;1.98;0.22;;;;;;;17.23;49.50;102040.97;7366009;19;20591;-60
2023/05/16 10:26:12;;;;;;;3.28;0.20;;;;;;;17.34;48.45;102043.31;7363462;19;20015;-60
2023/05/16 10:28:41;;;;;;;5.97;0.20;;;;;;;17.49;49.15;102039.81;7363391;19;20011;-61
2023/05/16 10:31:10;;;;;;;7.25;0.50;;;;;;;17.56;48.64;102039.13;7359040;19;20039;-62
2023/05/16 10:33:39;;;;;;;3.63;0.20;;;;;;;17.56;47.79;102047.97;7366013;19;20681;-61
2023/05/16 10:36:08;;;;;;;2.88;0.20;;;;;;;17.49;47.93;102044.28;7359266;19;21035;-61
2023/05/16 10:38:41;;;;;;;1.38;0.20;;;;;;;17.33;47.50;102036.31;7366014;19;21035;-62
2023/05/16 10:41:09;;;;;;;4.32;0.20;;;;;;;17.31;47.84;102033.84;7363722;19;20022;-62
2023/05/16 10:43:38;;;;;;;3.20;0.20;;;;;;;17.36;47.04;102036.00;7367331;19;20023;-63
2023/05/16 10:46:12;;;;;;;5.50;0.40;;;;;;;17.30;46.75;102034.84;7358710;19;20014;-61
2023/05/16 10:48:41;;;;;;;4.22;0.20;;;;;;;17.29;48.05;102029.66;7363584;19;20030;-60
2023/05/16 10:51:15;;;;;;;5.00;0.30;;;;;;;17.35;48.28;102031.66;7361913;19;20011;-61
2023/05/16 10:53:44;;;;;;;1.60;0.20;;;;;;;17.42;45.18;102030.03;7366295;19;20010;-61
2023/05/16 10:56:11;;;;;;;6.00;0.28;;;;;;;17.46;43.46;102034.84;7365902;19;20014;-61
2023/05/16 10:58:41;;;;;;;5.35;0.25;;;;;;;17.47;44.08;102035.66;7363751;19;20946;-60
2023/05/16 11:01:14;;;;;;;2.47;0.20;;;;;;;17.49;44.59;102037.16;7362107;19;20051;-61
2023/05/16 11:03:48;;;;;;;2.53;0.20;;;;;;;17.49;45.14;102031.81;7363985;19;20018;-61
2023/05/16 11:06:21;;;;;;;4.47;0.20;;;;;;;17.46;45.80;102037.50;7361100;19;20010;-61
2023/05/16 11:08:57;;;;;;;3.78;0.30;;;;;;;17.34;46.38;102030.84;7364739;19;20870;-61
2023/05/16 11:11:30;;;;;;;2.60;0.30;;;;;;;17.26;46.43;102035.34;7363251;19;20014;-62
2023/05/16 11:14:02;;;;;;;3.20;0.20;;;;;;;17.24;46.18;102030.19;7365884;19;20625;-61
2023/05/16 11:16:30;;;;;;;2.90;0.30;;;;;;;17.31;46.39;102035.66;7359083;19;20015;-61
2023/05/16 11:19:03;;;;;;;3.08;1.33;;;;;;;17.38;43.54;102034.81;7362918;19;20022;-62
2023/05/16 11:21:37;;;;;;;3.80;0.20;;;;;;;17.37;43.26;102035.81;7359512;19;20010;-60
2023/05/16 11:24:11;;;;;;;3.55;0.20;;;;;;;17.43;43.09;102031.66;7360583;19;20014;-62
2023/05/16 11:26:39;;;;;;;1.77;0.10;;;;;;;17.48;44.22;102026.66;7361187;19;20007;-63
2023/05/16 11:29:07;;;;;;;3.08;0.30;;;;;;;17.60;43.78;102020.03;7361750;19;20017;-62
2023/05/16 11:31:35;;;;;;;3.42;0.22;;;;;;;17.77;43.16;102034.16;7360156;19;20365;-61
2023/05/16 11:34:02;;;;;;;2.33;0.20;;;;;;;17.79;41.93;102022.31;7363654;19;20015;-61
2023/05/16 11:36:31;;;;;;;6.65;0.10;;;;;;;17.80;41.86;102026.63;7357300;19;20094;-62
2023/05/16 11:39:08;;;;;;;2.45;0.20;;;;;;;17.78;43.00;102030.47;7362678;19;20045;-62
2023/05/16 11:41:35;;;;;;;3.63;0.22;;;;;;;17.77;44.36;102020.84;7361846;19;20037;-61